sensor_id;sensor_type;location;lat;lon;timestamp;temperature;humidity
56725;DHT22;42608;52.776;6.968;2023-07-02T00:00:29;16.30;99.90
56725;DHT22;42608;52.776;6.968;2023-07-02T00:02:55;16.30;99.90
56725;DHT22;42608;52.776;6.968;2023-07-02T00:05:23;16.30;99.90
56725;DHT22;42608;52.776;6.968;2023-07-02T00:07:49;16.30;99.90
56725;DHT22;42608;52.776;6.968;2023-07-02T00:10:14;16.30;99.90
56725;DHT22;42608;52.776;6.968;2023-07-02T00:12:40;16.30;99.90
56725;DHT22;42608;52.776;6.968;2023-07-02T00:15:06;16.30;99.90
56725;DHT22;42608;52.776;6.968;2023-07-02T00:17:31;16.30;99.90
56725;DHT22;42608;52.776;6.968;2023-07-02T00:19:57;16.30;99.90
56725;DHT22;42608;52.776;6.968;2023-07-02T00:22:22;16.20;99.90
56725;DHT22;42608;52.776;6.968;2023-07-02T00:24:48;16.30;99.90
56725;DHT22;42608;52.776;6.968;2023-07-02T00:27:15;16.20;99.90
56725;DHT22;42608;52.776;6.968;2023-07-02T00:29:41;16.20;99.90
56725;DHT22;42608;52.776;6.968;2023-07-02T00:32:06;16.20;99.90
56725;DHT22;42608;52.776;6.968;2023-07-02T00:34:32;16.20;99.90
56725;DHT22;42608;52.776;6.968;2023-07-02T00:36:58;16.20;99.90
56725;DHT22;42608;52.776;6.968;2023-07-02T00:39:26;16.10;99.90
56725;DHT22;42608;52.776;6.968;2023-07-02T00:41:52;16.10;99.90
56725;DHT22;42608;52.776;6.968;2023-07-02T00:44:23;16.10;99.90
56725;DHT22;42608;52.776;6.968;2023-07-02T00:46:51;16.10;99.90
56725;DHT22;42608;52.776;6.968;2023-07-02T00:49:17;16.00;99.90
56725;DHT22;42608;52.776;6.968;2023-07-02T00:51:42;16.00;99.90
56725;DHT22;42608;52.776;6.968;2023-07-02T00:54:08;16.00;99.90
56725;DHT22;42608;52.776;6.968;2023-07-02T00:56:33;16.00;99.90
56725;DHT22;42608;52.776;6.968;2023-07-02T00:58:59;16.00;99.90
56725;DHT22;42608;52.776;6.968;2023-07-02T01:01:26;16.00;99.90
56725;DHT22;42608;52.776;6.968;2023-07-02T01:03:57;16.00;99.90
56725;DHT22;42608;52.776;6.968;2023-07-02T01:06:31;16.00;99.90
56725;DHT22;42608;52.776;6.968;2023-07-02T01:09:06;16.00;99.90
56725;DHT22;42608;52.776;6.968;2023-07-02T01:11:42;15.90;99.90
56725;DHT22;42608;52.776;6.968;2023-07-02T01:14:09;15.90;99.90
56725;DHT22;42608;52.776;6.968;2023-07-02T01:16:36;16.00;99.90
56725;DHT22;42608;52.776;6.968;2023-07-02T01:19:08;16.00;99.90
56725;DHT22;42608;52.776;6.968;2023-07-02T01:21:36;15.90;99.90
56725;DHT22;42608;52.776;6.968;2023-07-02T01:24:02;16.00;99.90
56725;DHT22;42608;52.776;6.968;2023-07-02T01:26:31;15.90;99.90
56725;DHT22;42608;52.776;6.968;2023-07-02T01:29:00;15.90;99.90
56725;DHT22;42608;52.776;6.968;2023-07-02T01:31:26;15.90;99.90
56725;DHT22;42608;52.776;6.968;2023-07-02T01:33:51;15.90;99.90
56725;DHT22;42608;52.776;6.968;2023-07-02T01:36:17;15.90;99.90
56725;DHT22;42608;52.776;6.968;2023-07-02T01:38:43;15.90;99.90
56725;DHT22;42608;52.776;6.968;2023-07-02T01:41:08;15.90;99.90
56725;DHT22;42608;52.776;6.968;2023-07-02T01:43:34;15.80;99.90
56725;DHT22;42608;52.776;6.968;2023-07-02T01:46:00;15.70;99.90
56725;DHT22;42608;52.776;6.968;2023-07-02T01:48:27;15.80;99.90
56725;DHT22;42608;52.776;6.968;2023-07-02T01:50:52;15.70;99.90
56725;DHT22;42608;52.776;6.968;2023-07-02T01:53:21;15.70;99.90
56725;DHT22;42608;52.776;6.968;2023-07-02T01:55:46;15.70;99.90
56725;DHT22;42608;52.776;6.968;2023-07-02T01:58:12;15.70;99.90
56725;DHT22;42608;52.776;6.968;2023-07-02T02:00:37;15.70;99.90
56725;DHT22;42608;52.776;6.968;2023-07-02T02:03:04;15.60;99.90
56725;DHT22;42608;52.776;6.968;2023-07-02T02:05:29;15.60;99.90
56725;DHT22;42608;52.776;6.968;2023-07-02T02:07:55;15.60;99.90
56725;DHT22;42608;52.776;6.968;2023-07-02T02:10:21;15.60;99.90
56725;DHT22;42608;52.776;6.968;2023-07-02T02:12:47;15.60;99.90
56725;DHT22;42608;52.776;6.968;2023-07-02T02:15:12;15.50;99.90
56725;DHT22;42608;52.776;6.968;2023-07-02T02:17:39;15.50;99.90
56725;DHT22;42608;52.776;6.968;2023-07-02T02:20:05;15.50;99.90
56725;DHT22;42608;52.776;6.968;2023-07-02T02:22:32;15.40;99.90
56725;DHT22;42608;52.776;6.968;2023-07-02T02:24:57;15.40;99.90
56725;DHT22;42608;52.776;6.968;2023-07-02T02:27:23;15.40;99.90
56725;DHT22;42608;52.776;6.968;2023-07-02T02:29:52;15.40;99.90
56725;DHT22;42608;52.776;6.968;2023-07-02T02:32:17;15.30;99.90
56725;DHT22;42608;52.776;6.968;2023-07-02T02:34:44;15.30;99.90
56725;DHT22;42608;52.776;6.968;2023-07-02T02:37:13;15.30;99.90
56725;DHT22;42608;52.776;6.968;2023-07-02T02:39:39;15.30;99.90
56725;DHT22;42608;52.776;6.968;2023-07-02T02:42:04;15.20;99.90
56725;DHT22;42608;52.776;6.968;2023-07-02T02:44:30;15.20;99.90
56725;DHT22;42608;52.776;6.968;2023-07-02T02:46:57;15.20;99.90
56725;DHT22;42608;52.776;6.968;2023-07-02T02:49:24;15.10;99.90
56725;DHT22;42608;52.776;6.968;2023-07-02T02:51:52;15.10;99.90
56725;DHT22;42608;52.776;6.968;2023-07-02T02:54:20;15.00;99.90
56725;DHT22;42608;52.776;6.968;2023-07-02T02:56:46;15.00;99.90
56725;DHT22;42608;52.776;6.968;2023-07-02T02:59:12;15.00;99.90
56725;DHT22;42608;52.776;6.968;2023-07-02T03:01:37;14.90;99.90
56725;DHT22;42608;52.776;6.968;2023-07-02T03:04:03;14.90;99.90
56725;DHT22;42608;52.776;6.968;2023-07-02T03:06:28;14.90;99.90
56725;DHT22;42608;52.776;6.968;2023-07-02T03:08:57;14.90;99.90
56725;DHT22;42608;52.776;6.968;2023-07-02T03:11:22;14.80;99.90
56725;DHT22;42608;52.776;6.968;2023-07-02T03:13:51;14.80;99.90
56725;DHT22;42608;52.776;6.968;2023-07-02T03:16:22;14.70;99.90
56725;DHT22;42608;52.776;6.968;2023-07-02T03:18:51;14.70;99.90
56725;DHT22;42608;52.776;6.968;2023-07-02T03:21:19;14.70;99.90
56725;DHT22;42608;52.776;6.968;2023-07-02T03:23:45;14.60;99.90
56725;DHT22;42608;52.776;6.968;2023-07-02T03:26:11;14.60;99.90
56725;DHT22;42608;52.776;6.968;2023-07-02T03:28:36;14.60;99.90
56725;DHT22;42608;52.776;6.968;2023-07-02T03:31:04;14.50;99.90
56725;DHT22;42608;52.776;6.968;2023-07-02T03:33:30;14.50;99.90
56725;DHT22;42608;52.776;6.968;2023-07-02T03:35:55;14.50;99.90
56725;DHT22;42608;52.776;6.968;2023-07-02T03:38:21;14.40;99.90
56725;DHT22;42608;52.776;6.968;2023-07-02T03:40:46;14.40;99.90
56725;DHT22;42608;52.776;6.968;2023-07-02T03:43:13;14.40;99.90
56725;DHT22;42608;52.776;6.968;2023-07-02T03:45:42;14.40;99.90
56725;DHT22;42608;52.776;6.968;2023-07-02T03:48:10;14.40;99.90
56725;DHT22;42608;52.776;6.968;2023-07-02T03:50:35;14.30;99.90
56725;DHT22;42608;52.776;6.968;2023-07-02T03:53:01;14.40;99.90
56725;DHT22;42608;52.776;6.968;2023-07-02T03:55:27;14.40;99.90
56725;DHT22;42608;52.776;6.968;2023-07-02T03:57:52;14.40;99.90
56725;DHT22;42608;52.776;6.968;2023-07-02T04:00:18;14.40;99.90
56725;DHT22;42608;52.776;6.968;2023-07-02T04:02:43;14.40;99.90
56725;DHT22;42608;52.776;6.968;2023-07-02T04:05:09;14.40;99.90
56725;DHT22;42608;52.776;6.968;2023-07-02T04:07:35;14.30;99.90
56725;DHT22;42608;52.776;6.968;2023-07-02T04:10:00;14.30;99.90
56725;DHT22;42608;52.776;6.968;2023-07-02T04:12:26;14.30;99.90
56725;DHT22;42608;52.776;6.968;2023-07-02T04:14:52;14.30;99.90
56725;DHT22;42608;52.776;6.968;2023-07-02T04:17:17;14.30;99.90
56725;DHT22;42608;52.776;6.968;2023-07-02T04:19:43;14.30;99.90
56725;DHT22;42608;52.776;6.968;2023-07-02T04:22:08;14.30;99.90
56725;DHT22;42608;52.776;6.968;2023-07-02T04:24:34;14.20;99.90
56725;DHT22;42608;52.776;6.968;2023-07-02T04:27:00;14.20;99.90
56725;DHT22;42608;52.776;6.968;2023-07-02T04:29:25;14.20;99.90
56725;DHT22;42608;52.776;6.968;2023-07-02T04:31:51;14.20;99.90
56725;DHT22;42608;52.776;6.968;2023-07-02T04:34:16;14.20;99.90
56725;DHT22;42608;52.776;6.968;2023-07-02T04:36:43;14.20;99.90
56725;DHT22;42608;52.776;6.968;2023-07-02T04:39:08;14.30;99.90
56725;DHT22;42608;52.776;6.968;2023-07-02T04:41:34;14.30;99.90
56725;DHT22;42608;52.776;6.968;2023-07-02T04:43:59;14.30;99.90
56725;DHT22;42608;52.776;6.968;2023-07-02T04:46:29;14.30;99.90
56725;DHT22;42608;52.776;6.968;2023-07-02T04:48:55;14.30;99.90
56725;DHT22;42608;52.776;6.968;2023-07-02T04:51:20;14.30;99.90
56725;DHT22;42608;52.776;6.968;2023-07-02T04:53:46;14.30;99.90
56725;DHT22;42608;52.776;6.968;2023-07-02T04:56:12;14.40;99.90
56725;DHT22;42608;52.776;6.968;2023-07-02T04:58:37;14.40;99.90
56725;DHT22;42608;52.776;6.968;2023-07-02T05:01:06;14.40;99.90
56725;DHT22;42608;52.776;6.968;2023-07-02T05:03:32;14.50;99.90
56725;DHT22;42608;52.776;6.968;2023-07-02T05:05:57;14.50;99.90
56725;DHT22;42608;52.776;6.968;2023-07-02T05:08:23;14.50;99.90
56725;DHT22;42608;52.776;6.968;2023-07-02T05:10:57;14.50;99.90
56725;DHT22;42608;52.776;6.968;2023-07-02T05:13:23;14.50;99.90
56725;DHT22;42608;52.776;6.968;2023-07-02T05:15:48;14.50;99.90
56725;DHT22;42608;52.776;6.968;2023-07-02T05:18:14;14.50;99.90
56725;DHT22;42608;52.776;6.968;2023-07-02T05:20:40;14.50;99.90
56725;DHT22;42608;52.776;6.968;2023-07-02T05:23:06;14.50;99.90
56725;DHT22;42608;52.776;6.968;2023-07-02T05:25:31;14.50;99.90
56725;DHT22;42608;52.776;6.968;2023-07-02T05:27:59;14.60;99.90
56725;DHT22;42608;52.776;6.968;2023-07-02T05:30:24;14.60;99.90
56725;DHT22;42608;52.776;6.968;2023-07-02T05:32:50;14.60;99.90
56725;DHT22;42608;52.776;6.968;2023-07-02T05:35:15;14.70;99.90
56725;DHT22;42608;52.776;6.968;2023-07-02T05:37:41;14.70;99.90
56725;DHT22;42608;52.776;6.968;2023-07-02T05:40:07;14.70;99.90
56725;DHT22;42608;52.776;6.968;2023-07-02T05:42:32;14.80;99.90
56725;DHT22;42608;52.776;6.968;2023-07-02T05:44:58;14.80;99.90
56725;DHT22;42608;52.776;6.968;2023-07-02T05:47:23;14.90;99.90
56725;DHT22;42608;52.776;6.968;2023-07-02T05:49:49;14.90;99.90
56725;DHT22;42608;52.776;6.968;2023-07-02T05:52:14;15.00;99.90
56725;DHT22;42608;52.776;6.968;2023-07-02T05:54:43;15.00;99.90
56725;DHT22;42608;52.776;6.968;2023-07-02T05:57:08;15.00;99.90
56725;DHT22;42608;52.776;6.968;2023-07-02T05:59:35;15.10;99.90
56725;DHT22;42608;52.776;6.968;2023-07-02T06:02:00;15.10;99.90
56725;DHT22;42608;52.776;6.968;2023-07-02T06:04:26;15.20;99.90
56725;DHT22;42608;52.776;6.968;2023-07-02T06:06:52;15.20;99.90
56725;DHT22;42608;52.776;6.968;2023-07-02T06:09:17;15.30;99.90
56725;DHT22;42608;52.776;6.968;2023-07-02T06:11:43;15.30;99.90
56725;DHT22;42608;52.776;6.968;2023-07-02T06:14:08;15.30;99.90
56725;DHT22;42608;52.776;6.968;2023-07-02T06:16:34;15.40;99.90
56725;DHT22;42608;52.776;6.968;2023-07-02T06:19:00;15.40;99.90
56725;DHT22;42608;52.776;6.968;2023-07-02T06:21:25;15.50;99.90
56725;DHT22;42608;52.776;6.968;2023-07-02T06:23:55;15.50;99.90
56725;DHT22;42608;52.776;6.968;2023-07-02T06:26:20;15.50;99.90
56725;DHT22;42608;52.776;6.968;2023-07-02T06:28:46;15.60;99.90
56725;DHT22;42608;52.776;6.968;2023-07-02T06:31:11;15.60;99.90
56725;DHT22;42608;52.776;6.968;2023-07-02T06:33:38;15.70;99.90
56725;DHT22;42608;52.776;6.968;2023-07-02T06:36:04;15.70;99.90
56725;DHT22;42608;52.776;6.968;2023-07-02T06:38:30;15.70;99.90
56725;DHT22;42608;52.776;6.968;2023-07-02T06:40:55;15.80;99.90
56725;DHT22;42608;52.776;6.968;2023-07-02T06:43:21;15.80;99.90
56725;DHT22;42608;52.776;6.968;2023-07-02T06:45:46;15.90;99.90
56725;DHT22;42608;52.776;6.968;2023-07-02T06:48:12;15.90;99.90
56725;DHT22;42608;52.776;6.968;2023-07-02T06:50:42;16.00;99.90
56725;DHT22;42608;52.776;6.968;2023-07-02T06:53:08;16.10;99.90
56725;DHT22;42608;52.776;6.968;2023-07-02T06:55:33;16.10;99.90
56725;DHT22;42608;52.776;6.968;2023-07-02T06:57:59;16.20;99.90
56725;DHT22;42608;52.776;6.968;2023-07-02T07:00:24;16.30;99.90
56725;DHT22;42608;52.776;6.968;2023-07-02T07:02:50;16.30;99.90
56725;DHT22;42608;52.776;6.968;2023-07-02T07:05:15;16.30;99.90
56725;DHT22;42608;52.776;6.968;2023-07-02T07:07:41;16.40;99.90
56725;DHT22;42608;52.776;6.968;2023-07-02T07:10:07;16.40;99.90
56725;DHT22;42608;52.776;6.968;2023-07-02T07:12:32;16.40;99.90
56725;DHT22;42608;52.776;6.968;2023-07-02T07:14:58;16.40;99.90
56725;DHT22;42608;52.776;6.968;2023-07-02T07:17:24;16.40;99.90
56725;DHT22;42608;52.776;6.968;2023-07-02T07:19:49;16.40;99.90
56725;DHT22;42608;52.776;6.968;2023-07-02T07:22:15;16.50;99.90
56725;DHT22;42608;52.776;6.968;2023-07-02T07:24:43;16.60;99.90
56725;DHT22;42608;52.776;6.968;2023-07-02T07:27:09;16.60;99.90
56725;DHT22;42608;52.776;6.968;2023-07-02T07:29:35;16.70;99.90
56725;DHT22;42608;52.776;6.968;2023-07-02T07:32:00;16.70;99.90
56725;DHT22;42608;52.776;6.968;2023-07-02T07:34:29;16.70;99.90
56725;DHT22;42608;52.776;6.968;2023-07-02T07:36:54;16.80;99.90
56725;DHT22;42608;52.776;6.968;2023-07-02T07:39:20;16.70;99.90
56725;DHT22;42608;52.776;6.968;2023-07-02T07:41:46;16.70;99.90
56725;DHT22;42608;52.776;6.968;2023-07-02T07:44:11;16.70;99.90
56725;DHT22;42608;52.776;6.968;2023-07-02T07:46:37;16.70;99.90
56725;DHT22;42608;52.776;6.968;2023-07-02T07:49:03;16.70;99.90
56725;DHT22;42608;52.776;6.968;2023-07-02T07:51:29;16.80;99.90
56725;DHT22;42608;52.776;6.968;2023-07-02T07:53:54;16.80;99.90
56725;DHT22;42608;52.776;6.968;2023-07-02T07:56:20;16.90;99.90
56725;DHT22;42608;52.776;6.968;2023-07-02T07:58:45;16.90;99.90
56725;DHT22;42608;52.776;6.968;2023-07-02T08:01:11;16.90;99.90
56725;DHT22;42608;52.776;6.968;2023-07-02T08:03:37;17.00;99.90
56725;DHT22;42608;52.776;6.968;2023-07-02T08:06:02;17.00;99.90
56725;DHT22;42608;52.776;6.968;2023-07-02T08:08:28;16.90;99.90
56725;DHT22;42608;52.776;6.968;2023-07-02T08:10:54;16.90;99.90
56725;DHT22;42608;52.776;6.968;2023-07-02T08:13:19;17.00;99.90
56725;DHT22;42608;52.776;6.968;2023-07-02T08:15:45;17.00;99.90
56725;DHT22;42608;52.776;6.968;2023-07-02T08:18:10;17.10;99.90
56725;DHT22;42608;52.776;6.968;2023-07-02T08:20:38;17.20;99.90
56725;DHT22;42608;52.776;6.968;2023-07-02T08:23:04;17.30;99.90
56725;DHT22;42608;52.776;6.968;2023-07-02T08:25:30;17.30;99.90
56725;DHT22;42608;52.776;6.968;2023-07-02T08:27:56;17.40;99.90
56725;DHT22;42608;52.776;6.968;2023-07-02T08:30:22;17.40;99.90
56725;DHT22;42608;52.776;6.968;2023-07-02T08:32:48;17.40;99.90
56725;DHT22;42608;52.776;6.968;2023-07-02T08:35:14;17.50;99.90
56725;DHT22;42608;52.776;6.968;2023-07-02T08:37:39;17.40;99.90
56725;DHT22;42608;52.776;6.968;2023-07-02T08:40:05;17.40;99.90
56725;DHT22;42608;52.776;6.968;2023-07-02T08:42:32;17.50;99.90
56725;DHT22;42608;52.776;6.968;2023-07-02T08:44:57;17.50;99.90
56725;DHT22;42608;52.776;6.968;2023-07-02T08:47:24;17.50;99.90
56725;DHT22;42608;52.776;6.968;2023-07-02T08:49:50;17.60;99.90
56725;DHT22;42608;52.776;6.968;2023-07-02T08:52:15;17.50;99.90
56725;DHT22;42608;52.776;6.968;2023-07-02T08:54:41;17.50;99.90
56725;DHT22;42608;52.776;6.968;2023-07-02T08:57:09;17.50;99.90
56725;DHT22;42608;52.776;6.968;2023-07-02T08:59:38;17.50;99.90
56725;DHT22;42608;52.776;6.968;2023-07-02T09:02:03;17.50;99.90
56725;DHT22;42608;52.776;6.968;2023-07-02T09:04:29;17.50;99.90
56725;DHT22;42608;52.776;6.968;2023-07-02T09:07:04;17.60;99.90
56725;DHT22;42608;52.776;6.968;2023-07-02T09:09:30;17.60;99.90
56725;DHT22;42608;52.776;6.968;2023-07-02T09:11:56;17.70;99.90
56725;DHT22;42608;52.776;6.968;2023-07-02T09:14:25;17.80;99.90
56725;DHT22;42608;52.776;6.968;2023-07-02T09:17:01;17.80;99.90
56725;DHT22;42608;52.776;6.968;2023-07-02T09:19:27;17.70;99.90
56725;DHT22;42608;52.776;6.968;2023-07-02T09:21:52;17.70;99.90
56725;DHT22;42608;52.776;6.968;2023-07-02T09:24:19;17.70;99.90
56725;DHT22;42608;52.776;6.968;2023-07-02T09:26:46;17.70;99.90
56725;DHT22;42608;52.776;6.968;2023-07-02T09:29:27;17.70;99.90
56725;DHT22;42608;52.776;6.968;2023-07-02T09:31:57;17.70;99.90
56725;DHT22;42608;52.776;6.968;2023-07-02T09:34:41;17.70;99.90
56725;DHT22;42608;52.776;6.968;2023-07-02T09:37:06;17.80;99.90
56725;DHT22;42608;52.776;6.968;2023-07-02T09:39:33;17.80;99.90
56725;DHT22;42608;52.776;6.968;2023-07-02T09:42:02;17.80;99.90
56725;DHT22;42608;52.776;6.968;2023-07-02T09:44:29;17.80;99.90
56725;DHT22;42608;52.776;6.968;2023-07-02T09:47:17;17.80;99.90
56725;DHT22;42608;52.776;6.968;2023-07-02T09:49:41;17.80;99.90
56725;DHT22;42608;52.776;6.968;2023-07-02T09:52:07;17.80;99.90
56725;DHT22;42608;52.776;6.968;2023-07-02T09:54:33;17.70;99.90
56725;DHT22;42608;52.776;6.968;2023-07-02T09:56:59;17.70;99.90
56725;DHT22;42608;52.776;6.968;2023-07-02T09:59:25;17.60;99.90
56725;DHT22;42608;52.776;6.968;2023-07-02T10:01:51;17.70;99.90
56725;DHT22;42608;52.776;6.968;2023-07-02T10:04:20;17.80;99.90
56725;DHT22;42608;52.776;6.968;2023-07-02T10:06:55;17.80;99.90
56725;DHT22;42608;52.776;6.968;2023-07-02T10:12:15;18.00;99.90
56725;DHT22;42608;52.776;6.968;2023-07-02T10:14:42;18.10;99.90
56725;DHT22;42608;52.776;6.968;2023-07-02T10:17:07;18.20;99.90
56725;DHT22;42608;52.776;6.968;2023-07-02T10:19:33;18.20;99.90
56725;DHT22;42608;52.776;6.968;2023-07-02T10:22:02;18.20;99.90
56725;DHT22;42608;52.776;6.968;2023-07-02T10:24:28;18.20;99.90
56725;DHT22;42608;52.776;6.968;2023-07-02T10:26:54;18.10;99.90
56725;DHT22;42608;52.776;6.968;2023-07-02T10:29:21;18.10;99.90
56725;DHT22;42608;52.776;6.968;2023-07-02T10:31:51;18.20;99.90
56725;DHT22;42608;52.776;6.968;2023-07-02T10:34:27;18.20;99.90
56725;DHT22;42608;52.776;6.968;2023-07-02T10:36:56;18.20;99.90
56725;DHT22;42608;52.776;6.968;2023-07-02T10:39:22;18.20;99.90
56725;DHT22;42608;52.776;6.968;2023-07-02T10:41:47;18.20;99.90
56725;DHT22;42608;52.776;6.968;2023-07-02T10:44:14;18.10;99.90
56725;DHT22;42608;52.776;6.968;2023-07-02T10:46:47;18.10;99.90
56725;DHT22;42608;52.776;6.968;2023-07-02T10:49:13;18.00;99.90
56725;DHT22;42608;52.776;6.968;2023-07-02T10:51:42;17.90;99.90
56725;DHT22;42608;52.776;6.968;2023-07-02T10:54:08;17.80;99.90
56725;DHT22;42608;52.776;6.968;2023-07-02T10:56:34;17.70;99.90
56725;DHT22;42608;52.776;6.968;2023-07-02T10:59:00;17.60;99.90
56725;DHT22;42608;52.776;6.968;2023-07-02T11:01:29;17.50;99.90
56725;DHT22;42608;52.776;6.968;2023-07-02T11:03:55;17.50;99.90
56725;DHT22;42608;52.776;6.968;2023-07-02T11:06:25;17.50;99.90
56725;DHT22;42608;52.776;6.968;2023-07-02T11:08:51;17.50;99.90
56725;DHT22;42608;52.776;6.968;2023-07-02T11:11:16;17.60;99.90
56725;DHT22;42608;52.776;6.968;2023-07-02T11:13:45;17.70;99.90
56725;DHT22;42608;52.776;6.968;2023-07-02T11:16:24;17.70;99.90
56725;DHT22;42608;52.776;6.968;2023-07-02T11:19:05;17.80;99.90
56725;DHT22;42608;52.776;6.968;2023-07-02T11:21:32;17.90;99.90
56725;DHT22;42608;52.776;6.968;2023-07-02T11:24:05;17.90;99.90
56725;DHT22;42608;52.776;6.968;2023-07-02T11:26:40;18.00;99.90
56725;DHT22;42608;52.776;6.968;2023-07-02T11:29:12;18.10;99.90
56725;DHT22;42608;52.776;6.968;2023-07-02T11:31:43;18.20;99.90
56725;DHT22;42608;52.776;6.968;2023-07-02T11:34:17;18.30;99.90
56725;DHT22;42608;52.776;6.968;2023-07-02T11:36:43;18.30;99.90
56725;DHT22;42608;52.776;6.968;2023-07-02T11:39:08;18.30;99.90
56725;DHT22;42608;52.776;6.968;2023-07-02T11:41:37;18.30;99.90
56725;DHT22;42608;52.776;6.968;2023-07-02T11:44:03;18.40;99.90
56725;DHT22;42608;52.776;6.968;2023-07-02T11:46:29;18.40;99.90
56725;DHT22;42608;52.776;6.968;2023-07-02T11:48:54;18.40;99.90
56725;DHT22;42608;52.776;6.968;2023-07-02T11:51:20;18.40;99.90
56725;DHT22;42608;52.776;6.968;2023-07-02T11:53:49;18.40;99.90
56725;DHT22;42608;52.776;6.968;2023-07-02T11:56:14;18.50;99.90
56725;DHT22;42608;52.776;6.968;2023-07-02T11:58:40;18.40;99.90
56725;DHT22;42608;52.776;6.968;2023-07-02T12:01:06;18.50;99.90
56725;DHT22;42608;52.776;6.968;2023-07-02T12:03:32;18.50;99.90
56725;DHT22;42608;52.776;6.968;2023-07-02T12:05:58;18.40;99.90
56725;DHT22;42608;52.776;6.968;2023-07-02T12:08:24;18.40;99.90
56725;DHT22;42608;52.776;6.968;2023-07-02T12:10:49;18.50;99.90
56725;DHT22;42608;52.776;6.968;2023-07-02T12:13:15;18.50;99.90
56725;DHT22;42608;52.776;6.968;2023-07-02T12:15:41;18.60;99.90
56725;DHT22;42608;52.776;6.968;2023-07-02T12:18:06;18.70;99.90
56725;DHT22;42608;52.776;6.968;2023-07-02T12:20:32;18.70;99.90
56725;DHT22;42608;52.776;6.968;2023-07-02T12:22:58;18.70;99.90
56725;DHT22;42608;52.776;6.968;2023-07-02T12:25:23;18.60;99.80
56725;DHT22;42608;52.776;6.968;2023-07-02T12:27:49;18.50;99.20
56725;DHT22;42608;52.776;6.968;2023-07-02T12:30:14;18.50;99.50
56725;DHT22;42608;52.776;6.968;2023-07-02T12:32:44;18.40;99.90
56725;DHT22;42608;52.776;6.968;2023-07-02T12:35:10;18.50;99.80
56725;DHT22;42608;52.776;6.968;2023-07-02T12:37:42;18.50;99.90
56725;DHT22;42608;52.776;6.968;2023-07-02T12:40:07;18.60;99.90
56725;DHT22;42608;52.776;6.968;2023-07-02T12:42:33;18.60;99.90
56725;DHT22;42608;52.776;6.968;2023-07-02T12:44:59;18.60;99.10
56725;DHT22;42608;52.776;6.968;2023-07-02T12:47:24;18.70;98.00
56725;DHT22;42608;52.776;6.968;2023-07-02T12:49:50;18.60;97.20
56725;DHT22;42608;52.776;6.968;2023-07-02T12:52:15;18.80;97.10
56725;DHT22;42608;52.776;6.968;2023-07-02T12:54:42;19.00;97.20
56725;DHT22;42608;52.776;6.968;2023-07-02T12:57:09;19.00;96.20
56725;DHT22;42608;52.776;6.968;2023-07-02T12:59:35;19.10;96.10
56725;DHT22;42608;52.776;6.968;2023-07-02T13:02:01;19.00;95.70
56725;DHT22;42608;52.776;6.968;2023-07-02T13:04:26;19.00;96.10
56725;DHT22;42608;52.776;6.968;2023-07-02T13:06:52;19.00;96.50
56725;DHT22;42608;52.776;6.968;2023-07-02T13:09:17;19.10;96.90
56725;DHT22;42608;52.776;6.968;2023-07-02T13:11:43;19.10;97.50
56725;DHT22;42608;52.776;6.968;2023-07-02T13:14:08;19.20;98.00
56725;DHT22;42608;52.776;6.968;2023-07-02T13:16:34;19.20;96.80
56725;DHT22;42608;52.776;6.968;2023-07-02T13:19:00;19.30;95.70
56725;DHT22;42608;52.776;6.968;2023-07-02T13:21:27;19.30;94.50
56725;DHT22;42608;52.776;6.968;2023-07-02T13:23:52;19.20;93.30
56725;DHT22;42608;52.776;6.968;2023-07-02T13:26:18;19.40;93.40
56725;DHT22;42608;52.776;6.968;2023-07-02T13:28:45;19.60;92.80
56725;DHT22;42608;52.776;6.968;2023-07-02T13:31:13;19.70;92.20
56725;DHT22;42608;52.776;6.968;2023-07-02T13:33:39;19.80;92.10
56725;DHT22;42608;52.776;6.968;2023-07-02T13:36:04;19.90;91.20
56725;DHT22;42608;52.776;6.968;2023-07-02T13:38:31;20.00;90.90
56725;DHT22;42608;52.776;6.968;2023-07-02T13:40:56;20.00;91.20
56725;DHT22;42608;52.776;6.968;2023-07-02T13:43:22;20.20;91.30
56725;DHT22;42608;52.776;6.968;2023-07-02T13:45:48;20.20;89.60
56725;DHT22;42608;52.776;6.968;2023-07-02T13:48:14;20.30;87.20
56725;DHT22;42608;52.776;6.968;2023-07-02T13:50:39;20.30;86.50
56725;DHT22;42608;52.776;6.968;2023-07-02T13:53:05;20.30;86.80
56725;DHT22;42608;52.776;6.968;2023-07-02T13:55:30;20.40;86.60
56725;DHT22;42608;52.776;6.968;2023-07-02T13:57:56;20.50;84.40
56725;DHT22;42608;52.776;6.968;2023-07-02T14:00:29;20.60;83.50
56725;DHT22;42608;52.776;6.968;2023-07-02T14:02:54;20.70;82.40
56725;DHT22;42608;52.776;6.968;2023-07-02T14:05:20;20.70;81.20
56725;DHT22;42608;52.776;6.968;2023-07-02T14:07:46;20.60;80.00
56725;DHT22;42608;52.776;6.968;2023-07-02T14:10:12;20.40;79.40
56725;DHT22;42608;52.776;6.968;2023-07-02T14:12:38;20.30;79.00
56725;DHT22;42608;52.776;6.968;2023-07-02T14:15:04;20.10;79.50
56725;DHT22;42608;52.776;6.968;2023-07-02T14:17:30;20.10;80.70
56725;DHT22;42608;52.776;6.968;2023-07-02T14:19:56;20.10;80.90
56725;DHT22;42608;52.776;6.968;2023-07-02T14:22:21;19.90;80.40
56725;DHT22;42608;52.776;6.968;2023-07-02T14:24:47;19.90;81.30
56725;DHT22;42608;52.776;6.968;2023-07-02T14:27:12;19.90;81.70
56725;DHT22;42608;52.776;6.968;2023-07-02T14:29:38;19.90;80.60
56725;DHT22;42608;52.776;6.968;2023-07-02T14:32:04;19.90;81.10
56725;DHT22;42608;52.776;6.968;2023-07-02T14:34:29;19.90;81.20
56725;DHT22;42608;52.776;6.968;2023-07-02T14:36:55;19.90;81.70
56725;DHT22;42608;52.776;6.968;2023-07-02T14:39:21;19.80;82.00
56725;DHT22;42608;52.776;6.968;2023-07-02T14:41:48;19.90;82.80
56725;DHT22;42608;52.776;6.968;2023-07-02T14:44:13;19.90;83.10
56725;DHT22;42608;52.776;6.968;2023-07-02T14:46:39;19.80;82.30
56725;DHT22;42608;52.776;6.968;2023-07-02T14:49:05;19.70;82.10
56725;DHT22;42608;52.776;6.968;2023-07-02T14:51:30;19.70;82.20
56725;DHT22;42608;52.776;6.968;2023-07-02T14:53:56;19.60;82.80
56725;DHT22;42608;52.776;6.968;2023-07-02T14:56:22;19.70;83.30
56725;DHT22;42608;52.776;6.968;2023-07-02T14:58:48;19.70;83.80
56725;DHT22;42608;52.776;6.968;2023-07-02T15:01:14;19.70;83.40
56725;DHT22;42608;52.776;6.968;2023-07-02T15:03:40;19.70;83.80
56725;DHT22;42608;52.776;6.968;2023-07-02T15:06:12;19.60;84.10
56725;DHT22;42608;52.776;6.968;2023-07-02T15:08:39;19.60;84.70
56725;DHT22;42608;52.776;6.968;2023-07-02T15:11:04;19.60;84.50
56725;DHT22;42608;52.776;6.968;2023-07-02T15:13:30;19.70;84.20
56725;DHT22;42608;52.776;6.968;2023-07-02T15:15:56;19.70;84.10
56725;DHT22;42608;52.776;6.968;2023-07-02T15:18:22;19.70;83.80
56725;DHT22;42608;52.776;6.968;2023-07-02T15:20:49;19.70;82.60
56725;DHT22;42608;52.776;6.968;2023-07-02T15:23:15;19.80;82.40
56725;DHT22;42608;52.776;6.968;2023-07-02T15:25:41;19.80;82.50
56725;DHT22;42608;52.776;6.968;2023-07-02T15:28:06;19.80;81.60